Time;durP1;ratioP1;P1;durP2;ratioP2;P2;SDS_P1;SDS_P2;PMS_P1;PMS_P2;Temp;Humidity;BMP_temperature;BMP_pressure;BME280_temperature;BME280_humidity;BME280_pressure;Samples;Min_cycle;Max_cycle;Signal;HPM_P1;HPM_P2
2021/01/09 00:01:39;;;;;;;68.10;27.42;;;;;;;0.27;100.00;99016.00;4245617;83;44078;-78
2021/01/09 00:07:41;;;;;;;63.20;27.13;;;;;;;0.25;100.00;99012.70;4183203;83;43405;-78
2021/01/09 00:13:43;;;;;;;57.00;26.40;;;;;;;0.29;100.00;99015.34;4258730;83;28546;-80
2021/01/09 00:19:45;;;;;;;65.67;27.25;;;;;;;0.24;100.00;99022.95;4304139;81;43383;-80
2021/01/09 00:25:47;;;;;;;60.75;25.27;;;;;;;0.23;100.00;99023.44;4331589;81;28569;-79
2021/01/09 00:31:49;;;;;;;60.95;26.10;;;;;;;0.37;100.00;99022.47;4327317;81;43103;-79
2021/01/09 00:37:52;;;;;;;64.47;26.40;;;;;;;0.41;100.00;99021.13;4243673;83;43265;-79
2021/01/09 00:43:54;;;;;;;54.23;25.00;;;;;;;0.40;100.00;99022.94;4448468;78;44112;-79
2021/01/09 00:49:56;;;;;;;58.17;25.57;;;;;;;0.29;100.00;99026.42;4380274;80;28644;-79
2021/01/09 00:55:58;;;;;;;62.78;26.95;;;;;;;0.27;100.00;99031.39;4414992;79;43347;-78
2021/01/09 01:02:00;;;;;;;60.83;26.65;;;;;;;0.20;100.00;99037.47;4329576;81;43228;-77
2021/01/09 01:08:03;;;;;;;56.95;24.67;;;;;;;0.12;100.00;99037.81;4409514;79;44111;-78
2021/01/09 01:14:06;;;;;;;55.88;24.63;;;;;;;0.09;100.00;99041.28;4397674;79;44142;-77
2021/01/09 01:20:09;;;;;;;52.05;23.40;;;;;;;-0.01;100.00;99036.96;4393548;79;43994;-77
2021/01/09 01:26:12;;;;;;;48.98;21.40;;;;;;;-0.07;100.00;99032.31;4384414;79;44428;-78
2021/01/09 01:32:15;;;;;;;43.45;20.77;;;;;;;-0.19;100.00;99030.97;4385483;80;28547;-78
2021/01/09 01:38:17;;;;;;;45.20;21.30;;;;;;;-0.25;100.00;99036.92;4402954;80;43761;-80
2021/01/09 01:44:19;;;;;;;35.90;16.17;;;;;;;-0.38;100.00;99043.46;4423955;79;44455;-79
2021/01/09 01:50:22;;;;;;;29.52;13.65;;;;;;;-0.42;100.00;99040.81;4394994;79;43383;-79
2021/01/09 01:56:24;;;;;;;24.72;11.83;;;;;;;-0.34;100.00;99039.53;4409147;80;43579;-80
2021/01/09 02:02:26;;;;;;;22.62;10.98;;;;;;;-0.32;100.00;99045.48;4419614;80;44467;-80
2021/01/09 02:08:41;;;;;;;23.45;11.50;;;;;;;-0.40;100.00;99038.84;4389874;79;43244;-80
2021/01/09 02:14:50;;;;;;;24.02;11.80;;;;;;;-0.52;100.00;99040.96;4397206;79;28618;-78
2021/01/09 02:20:58;;;;;;;22.70;11.18;;;;;;;-0.50;100.00;99052.19;4406548;78;44485;-77
2021/01/09 02:27:04;;;;;;;20.80;10.05;;;;;;;-0.46;100.00;99046.09;4306312;81;44457;-81
2021/01/09 02:39:24;;;;;;;22.05;9.60;;;;;;;-0.49;100.00;99047.23;4597986;76;85833;-82
2021/01/09 02:45:27;;;;;;;24.37;11.60;;;;;;;-0.46;100.00;99044.27;4508427;78;43236;-82
2021/01/09 02:51:29;;;;;;;20.45;9.90;;;;;;;-0.42;100.00;99055.34;4491326;78;44471;-82
2021/01/09 02:57:31;;;;;;;20.80;9.78;;;;;;;-0.37;100.00;99054.36;4512270;78;44179;-82
2021/01/09 03:03:34;;;;;;;19.32;9.78;;;;;;;-0.32;100.00;99057.84;4511247;78;43939;-83
2021/01/09 03:09:36;;;;;;;19.75;9.83;;;;;;;-0.24;100.00;99058.39;4476443;78;44445;-82
2021/01/09 03:15:38;;;;;;;19.82;10.23;;;;;;;-0.18;100.00;99055.92;4469645;78;44424;-82
2021/01/09 03:21:41;;;;;;;20.08;9.63;;;;;;;-0.16;100.00;99055.75;4445586;78;43996;-83
2021/01/09 03:27:43;;;;;;;18.37;9.50;;;;;;;-0.11;100.00;99061.88;4305310;81;43939;-82
2021/01/09 03:33:45;;;;;;;18.10;8.25;;;;;;;-0.09;100.00;99053.31;4310852;81;43939;-83
2021/01/09 03:39:47;;;;;;;17.10;9.00;;;;;;;-0.09;100.00;99056.77;4319373;81;43907;-83
2021/01/09 03:45:49;;;;;;;16.70;8.50;;;;;;;-0.03;100.00;99057.45;4322207;81;44009;-83
2021/01/09 03:51:52;;;;;;;16.50;8.65;;;;;;;-0.17;100.00;99069.95;4298090;80;43942;-83
2021/01/09 03:57:54;;;;;;;17.30;8.75;;;;;;;-0.17;100.00;99072.59;4311489;81;43924;-83
2021/01/09 04:03:56;;;;;;;17.42;8.98;;;;;;;-0.24;100.00;99079.53;4312066;81;43916;-82
2021/01/09 04:09:58;;;;;;;14.90;8.03;;;;;;;-0.35;100.00;99076.67;4396212;80;43921;-81
2021/01/09 04:16:04;;;;;;;16.93;9.08;;;;;;;-0.41;100.00;99079.97;4292501;81;43907;-79
2021/01/09 04:22:06;;;;;;;17.37;9.15;;;;;;;-0.46;100.00;99080.44;4317724;81;43927;-82
2021/01/09 04:28:09;;;;;;;17.55;8.25;;;;;;;-0.54;100.00;99081.72;4308569;81;43955;-82
2021/01/09 04:34:12;;;;;;;17.12;8.05;;;;;;;-0.37;100.00;99083.93;4383829;80;43902;-83
2021/01/09 04:40:14;;;;;;;17.17;9.23;;;;;;;-0.31;100.00;99081.48;4387289;80;43917;-82
2021/01/09 04:46:17;;;;;;;16.85;8.55;;;;;;;-0.33;100.00;99086.09;4393692;80;43973;-82
2021/01/09 04:52:20;;;;;;;16.82;8.15;;;;;;;-0.26;100.00;99088.08;4366056;80;43969;-83
2021/01/09 04:58:22;;;;;;;16.90;8.13;;;;;;;-0.19;100.00;99082.50;4323186;82;43897;-77
2021/01/09 05:04:24;;;;;;;16.48;7.90;;;;;;;-0.21;100.00;99088.45;4281101;82;43903;-77
2021/01/09 05:10:26;;;;;;;17.17;8.68;;;;;;;-0.16;100.00;99092.27;4283260;83;44252;-78
2021/01/09 05:16:28;;;;;;;14.10;7.97;;;;;;;-0.12;100.00;99101.19;4303998;82;43965;-81
2021/01/09 05:22:31;;;;;;;12.28;7.12;;;;;;;-0.04;100.00;99102.06;4405762;80;43904;-79
2021/01/09 05:28:33;;;;;;;16.48;8.35;;;;;;;0.12;100.00;99101.27;4356263;80;43931;-80
2021/01/09 05:34:54;;;;;;;15.40;7.87;;;;;;;-0.01;100.00;99112.78;4371858;80;43943;-81
2021/01/09 05:41:04;;;;;;;16.27;8.00;;;;;;;0.04;100.00;99113.14;4356110;80;43935;-83
2021/01/09 05:47:07;;;;;;;17.92;8.63;;;;;;;-0.09;100.00;99117.56;4350369;81;43934;-80
2021/01/09 05:53:09;;;;;;;15.53;8.15;;;;;;;-0.08;100.00;99123.69;4359596;81;43987;-81
2021/01/09 05:59:12;;;;;;;17.60;8.73;;;;;;;-0.08;100.00;99125.81;4379494;80;43925;-81
2021/01/09 06:05:15;;;;;;;15.75;8.15;;;;;;;-0.07;100.00;99131.44;4377351;81;43922;-81
2021/01/09 06:11:19;;;;;;;15.38;7.45;;;;;;;-0.14;100.00;99147.62;4375540;81;43975;-81
2021/01/09 06:17:22;;;;;;;14.73;8.20;;;;;;;-0.06;100.00;99153.42;4335270;81;43911;-81
2021/01/09 06:23:25;;;;;;;17.40;8.88;;;;;;;0.02;100.00;99156.58;4361596;81;43903;-81
2021/01/09 06:29:29;;;;;;;17.65;9.00;;;;;;;0.10;100.00;99159.27;4374483;80;43935;-81
2021/01/09 06:35:35;;;;;;;19.27;9.23;;;;;;;0.20;100.00;99167.89;4341710;80;43922;-81
2021/01/09 06:41:40;;;;;;;17.55;9.25;;;;;;;0.28;100.00;99176.34;4360748;81;43926;-81
2021/01/09 06:47:59;;;;;;;16.65;8.88;;;;;;;0.29;100.00;99179.31;4359326;80;43930;-81
2021/01/09 06:54:22;;;;;;;18.98;9.93;;;;;;;0.32;100.00;99194.88;4373890;80;44499;-84
2021/01/09 07:00:24;;;;;;;18.30;8.90;;;;;;;0.41;100.00;99198.37;4357914;81;43919;-83
2021/01/09 07:06:59;;;;;;;17.82;9.43;;;;;;;0.34;100.00;99199.51;4391892;79;43923;-82
2021/01/09 07:13:07;;;;;;;19.10;9.43;;;;;;;0.39;100.00;99206.97;4359146;80;28566;-83
2021/01/09 07:19:11;;;;;;;19.90;9.45;;;;;;;0.39;100.00;99216.22;4369405;80;43927;-84
2021/01/09 07:25:13;;;;;;;18.95;9.85;;;;;;;0.46;100.00;99238.89;4362453;80;43899;-85
2021/01/09 07:31:15;;;;;;;19.15;9.98;;;;;;;0.47;100.00;99244.52;4366069;81;44459;-84
2021/01/09 07:37:17;;;;;;;22.15;10.82;;;;;;;0.54;100.00;99242.38;4355585;80;44428;-84
2021/01/09 07:43:43;;;;;;;20.70;11.35;;;;;;;0.55;100.00;99254.61;4371191;81;44463;-84
2021/01/09 07:49:53;;;;;;;22.82;10.98;;;;;;;0.53;100.00;99265.05;4367200;80;44504;-81
2021/01/09 07:55:55;;;;;;;26.90;13.83;;;;;;;0.60;100.00;99270.02;4368438;80;28599;-79
2021/01/09 08:01:58;;;;;;;24.98;12.80;;;;;;;0.71;100.00;99278.16;4347577;81;43327;-82
2021/01/09 08:08:02;;;;;;;24.98;12.13;;;;;;;0.91;100.00;99277.37;4339929;80;43739;-81
2021/01/09 08:14:05;;;;;;;21.55;11.75;;;;;;;1.02;100.00;99272.76;4352167;80;44480;-80
2021/01/09 08:20:12;;;;;;;23.50;11.38;;;;;;;1.09;100.00;99274.61;4296019;81;43297;-82
2021/01/09 08:26:15;;;;;;;26.25;13.05;;;;;;;1.30;100.00;99281.73;4309483;82;28548;-80
2021/01/09 08:32:17;;;;;;;25.48;12.98;;;;;;;1.29;100.00;99281.41;4301745;82;42949;-80
2021/01/09 08:38:28;;;;;;;27.25;13.28;;;;;;;1.44;100.00;99278.93;4307272;81;28563;-79
2021/01/09 08:44:31;;;;;;;26.25;12.70;;;;;;;1.59;100.00;99275.93;4382028;80;28537;-77
2021/01/09 08:50:36;;;;;;;27.65;12.85;;;;;;;1.69;100.00;99281.56;4396924;80;43385;-81
2021/01/09 08:56:38;;;;;;;26.15;13.22;;;;;;;1.83;100.00;99291.50;4359077;80;28587;-80
2021/01/09 09:02:41;;;;;;;28.62;13.78;;;;;;;1.70;100.00;99291.16;4315177;81;28634;-80
2021/01/09 09:08:44;;;;;;;26.48;12.20;;;;;;;1.72;100.00;99299.28;4395353;79;28599;-80
2021/01/09 09:14:59;;;;;;;24.12;12.60;;;;;;;1.72;100.00;99298.44;4396871;80;43768;-79
2021/01/09 09:21:08;;;;;;;24.23;11.75;;;;;;;1.73;100.00;99283.70;4357136;80;28643;-80
2021/01/09 09:27:26;;;;;;;27.15;12.70;;;;;;;1.78;100.00;99285.86;4393140;81;28618;-82
2021/01/09 09:33:29;;;;;;;21.97;11.55;;;;;;;1.94;100.00;99277.05;4395896;80;44740;-80
2021/01/09 09:39:34;;;;;;;22.00;10.68;;;;;;;2.01;100.00;99266.59;4309887;81;28547;-81
2021/01/09 09:45:36;;;;;;;26.20;12.88;;;;;;;2.16;100.00;99259.59;4342039;81;28607;-83
2021/01/09 09:51:38;;;;;;;19.15;9.43;;;;;;;1.75;100.00;99266.32;4341463;80;28599;-79
2021/01/09 09:57:40;;;;;;;19.45;9.45;;;;;;;1.90;100.00;99265.13;4329763;81;28578;-83
2021/01/09 10:03:42;;;;;;;20.15;10.15;;;;;;;1.81;100.00;99270.93;4358107;81;28585;-83
2021/01/09 10:09:45;;;;;;;21.00;10.13;;;;;;;2.04;100.00;99263.09;4351407;80;28586;-83
2021/01/09 10:15:47;;;;;;;20.23;9.95;;;;;;;2.02;100.00;99248.34;4343824;80;28550;-86
2021/01/09 10:21:50;;;;;;;23.38;11.00;;;;;;;2.16;100.00;99251.64;4356227;80;28575;-80
2021/01/09 10:27:54;;;;;;;22.70;11.10;;;;;;;2.35;100.00;99262.85;4353879;80;28595;-81
2021/01/09 10:33:56;;;;;;;23.00;10.88;;;;;;;2.44;100.00;99267.09;4369361;80;28618;-79
2021/01/09 10:39:58;;;;;;;20.27;10.28;;;;;;;2.48;100.00;99253.83;4311364;81;28606;-79
2021/01/09 10:46:02;;;;;;;17.87;8.98;;;;;;;2.60;100.00;99254.28;4354955;80;28578;-80
2021/01/09 10:52:05;;;;;;;23.70;11.65;;;;;;;2.37;100.00;99263.50;4338985;80;28587;-82
2021/01/09 10:58:09;;;;;;;24.67;12.20;;;;;;;2.47;100.00;99261.47;4364067;80;28638;-83
2021/01/09 11:04:11;;;;;;;23.07;11.57;;;;;;;2.40;100.00;99264.47;4376764;81;28571;-79
2021/01/09 11:10:13;;;;;;;21.85;10.15;;;;;;;2.32;100.00;99261.84;4364461;81;28610;-77
2021/01/09 11:16:23;;;;;;;25.90;11.60;;;;;;;2.58;100.00;99262.08;4342776;81;28554;-80
2021/01/09 11:22:25;;;;;;;23.75;11.73;;;;;;;2.41;100.00;99257.35;4347781;80;28588;-80
2021/01/09 11:28:27;;;;;;;26.17;11.95;;;;;;;2.25;100.00;99263.03;4353706;80;28553;-79
2021/01/09 11:34:30;;;;;;;24.87;11.60;;;;;;;2.17;100.00;99268.36;4355559;80;28698;-81
2021/01/09 11:40:32;;;;;;;18.00;9.30;;;;;;;2.20;100.00;99261.41;4347451;80;28654;-82
2021/01/09 11:46:35;;;;;;;16.35;8.63;;;;;;;2.17;100.00;99267.88;4344925;81;28589;-78
2021/01/09 11:52:38;;;;;;;19.00;8.85;;;;;;;2.18;100.00;99268.20;4347510;80;28614;-79
2021/01/09 11:58:41;;;;;;;18.42;8.93;;;;;;;2.27;100.00;99268.18;4362019;81;28540;-80
2021/01/09 12:04:43;;;;;;;18.40;9.75;;;;;;;2.53;100.00;99263.93;4349679;80;28546;-79
2021/01/09 12:10:45;;;;;;;21.35;10.93;;;;;;;2.39;100.00;99268.62;4333029;80;28642;-83
2021/01/09 12:16:47;;;;;;;19.92;9.05;;;;;;;2.45;100.00;99271.44;4324452;81;28585;-82
2021/01/09 12:22:50;;;;;;;25.48;10.98;;;;;;;2.36;100.00;99271.14;4336789;81;28645;-80
2021/01/09 12:28:52;;;;;;;24.45;11.88;;;;;;;2.42;100.00;99272.27;4341166;81;28614;-79
2021/01/09 12:34:56;;;;;;;25.08;13.20;;;;;;;2.32;100.00;99270.65;4356400;80;28574;-79
2021/01/09 12:40:57;;;;;;;24.23;10.78;;;;;;;2.21;100.00;99278.47;4341676;80;28625;-79
2021/01/09 12:47:00;;;;;;;20.65;10.08;;;;;;;2.39;100.00;99267.29;4348007;80;28640;-80
2021/01/09 12:53:03;;;;;;;29.37;12.95;;;;;;;2.45;100.00;99269.27;4347908;80;28552;-80
2021/01/09 12:59:11;;;;;;;24.98;12.47;;;;;;;2.22;100.00;99269.50;4344123;80;28563;-80
2021/01/09 13:05:14;;;;;;;29.75;15.03;;;;;;;2.34;100.00;99276.60;4353388;80;28575;-81
2021/01/09 13:11:20;;;;;;;26.25;12.58;;;;;;;2.16;100.00;99276.84;4365349;80;28542;-76
2021/01/09 13:17:24;;;;;;;30.08;14.50;;;;;;;1.97;100.00;99289.96;4360569;81;28551;-78
2021/01/09 13:23:27;;;;;;;30.68;14.07;;;;;;;1.97;100.00;99289.96;4368812;80;28601;-78
2021/01/09 13:29:29;;;;;;;28.27;13.30;;;;;;;2.00;100.00;99298.08;4374658;81;28595;-76
2021/01/09 13:35:32;;;;;;;27.20;13.55;;;;;;;2.00;100.00;99303.39;4345339;81;28554;-82
2021/01/09 13:41:35;;;;;;;29.10;13.43;;;;;;;1.69;100.00;99320.84;4358547;81;28716;-82
2021/01/09 13:47:37;;;;;;;32.55;15.28;;;;;;;1.73;100.00;99317.36;4377152;80;28652;-81
2021/01/09 13:53:40;;;;;;;28.40;13.85;;;;;;;1.53;100.00;99331.75;4306091;81;28602;-81
2021/01/09 13:59:42;;;;;;;25.97;11.95;;;;;;;1.66;100.00;99337.89;4296600;81;28655;-80
2021/01/09 14:05:44;;;;;;;31.17;14.07;;;;;;;1.52;100.00;99351.81;4302624;81;28549;-79
2021/01/09 14:11:46;;;;;;;26.25;12.50;;;;;;;1.47;100.00;99353.63;4299078;81;28621;-77
2021/01/09 14:17:49;;;;;;;25.80;12.35;;;;;;;1.54;100.00;99356.45;4288198;81;28622;-76
2021/01/09 14:23:53;;;;;;;27.82;14.05;;;;;;;1.59;100.00;99366.55;4301032;81;28605;-77
2021/01/09 14:29:55;;;;;;;26.65;12.98;;;;;;;1.48;100.00;99366.37;4308311;81;28575;-76
2021/01/09 14:35:58;;;;;;;27.85;14.23;;;;;;;1.40;100.00;99364.54;4286585;81;28555;-76
2021/01/09 14:42:00;;;;;;;31.68;15.45;;;;;;;1.49;100.00;99374.16;4277435;81;28718;-77
2021/01/09 14:48:05;;;;;;;33.25;16.27;;;;;;;1.51;100.00;99380.12;4311394;81;28629;-77
2021/01/09 14:54:07;;;;;;;36.25;16.95;;;;;;;1.41;100.00;99389.20;4305638;82;44440;-75
2021/01/09 15:00:10;;;;;;;36.83;18.35;;;;;;;1.45;100.00;99398.50;4323169;81;28712;-78
2021/01/09 15:06:23;;;;;;;39.10;18.00;;;;;;;1.41;100.00;99396.67;4312572;81;28617;-75
2021/01/09 15:12:26;;;;;;;39.58;19.00;;;;;;;1.31;100.00;99403.45;4326087;81;28547;-75
2021/01/09 15:19:03;;;;;;;;;;;;;;;;;;;;;
2021/01/09 15:24:53;;;;;;;38.73;18.95;;;;;;;1.21;100.00;99421.30;4460356;79;85489;-75
2021/01/09 15:30:56;;;;;;;38.20;17.32;;;;;;;1.14;100.00;99434.33;4397171;80;28556;-76
2021/01/09 15:36:59;;;;;;;34.83;16.90;;;;;;;1.02;100.00;99439.10;4284897;82;28583;-75
2021/01/09 15:43:01;;;;;;;33.67;15.23;;;;;;;0.98;100.00;99445.69;4255659;83;28592;-76
2021/01/09 15:49:04;;;;;;;30.37;13.88;;;;;;;0.92;100.00;99441.05;4312529;81;28636;-76
2021/01/09 15:55:07;;;;;;;30.50;14.85;;;;;;;1.00;100.00;99455.65;4264224;83;44084;-76
2021/01/09 16:01:13;;;;;;;28.47;12.75;;;;;;;0.90;100.00;99458.91;4228225;83;28573;-76
2021/01/09 16:07:16;;;;;;;26.70;12.45;;;;;;;0.69;100.00;99453.50;4267577;81;28548;-76
2021/01/09 16:13:19;;;;;;;26.02;12.40;;;;;;;0.68;100.00;99462.44;4265799;83;43043;-76
2021/01/09 16:19:22;;;;;;;35.75;15.75;;;;;;;0.55;100.00;99463.66;4316265;81;28544;-76
2021/01/09 16:25:24;;;;;;;33.10;15.40;;;;;;;0.48;100.00;99467.92;4348812;81;44112;-76
2021/01/09 16:31:42;;;;;;;34.43;15.58;;;;;;;0.50;100.00;99469.92;4342291;81;44082;-75
2021/01/09 16:37:54;;;;;;;35.48;16.60;;;;;;;0.46;100.00;99472.52;4324859;80;28528;-76
2021/01/09 16:43:56;;;;;;;38.75;17.57;;;;;;;0.47;100.00;99474.20;4326516;80;44459;-75
2021/01/09 16:49:59;;;;;;;31.35;15.68;;;;;;;0.42;100.00;99473.83;4306451;81;28959;-75
2021/01/09 16:56:01;;;;;;;32.75;14.93;;;;;;;0.45;100.00;99469.54;4332920;80;28588;-76
2021/01/09 17:02:03;;;;;;;35.55;16.12;;;;;;;0.42;100.00;99479.11;4302848;81;44244;-75
2021/01/09 17:08:05;;;;;;;34.95;16.60;;;;;;;0.38;100.00;99484.39;4345715;81;44081;-76
2021/01/09 17:14:10;;;;;;;36.35;15.75;;;;;;;0.32;100.00;99487.16;4324553;81;44429;-76
2021/01/09 17:20:14;;;;;;;33.30;15.87;;;;;;;0.35;100.00;99486.00;4350166;80;34387;-75
2021/01/09 17:26:17;;;;;;;38.63;17.90;;;;;;;0.30;100.00;99475.87;4330315;80;44456;-77
2021/01/09 17:32:19;;;;;;;38.78;17.92;;;;;;;0.25;100.00;99480.30;4335602;81;44460;-77
2021/01/09 17:38:24;;;;;;;42.08;18.20;;;;;;;0.12;100.00;99491.77;4344138;81;28576;-77
2021/01/09 17:44:28;;;;;;;38.20;17.47;;;;;;;0.15;100.00;99493.28;4345977;80;28590;-74
2021/01/09 17:50:30;;;;;;;39.88;18.70;;;;;;;0.12;100.00;99491.29;4326849;81;44444;-76
2021/01/09 17:56:33;;;;;;;36.68;17.45;;;;;;;-0.10;100.00;99497.04;4344549;81;28642;-75
2021/01/09 18:02:37;;;;;;;37.73;17.75;;;;;;;-0.24;100.00;99495.73;4311270;80;44503;-75
2021/01/09 18:08:39;;;;;;;39.18;18.25;;;;;;;-0.32;100.00;99507.88;4349586;80;44508;-75
2021/01/09 18:14:42;;;;;;;39.88;18.37;;;;;;;-0.23;100.00;99509.29;4346306;80;44480;-75
2021/01/09 18:20:46;;;;;;;40.88;19.75;;;;;;;-0.24;100.00;99511.59;4325307;80;28616;-75
2021/01/09 18:26:49;;;;;;;46.60;22.20;;;;;;;-0.02;100.00;99507.66;4328600;81;44490;-75
2021/01/09 18:32:53;;;;;;;58.95;25.82;;;;;;;-0.03;100.00;99512.62;4313933;80;28571;-75
2021/01/09 18:39:00;;;;;;;60.88;25.10;;;;;;;0.16;100.00;99510.33;4334597;81;42936;-75
2021/01/09 18:45:05;;;;;;;63.90;25.52;;;;;;;0.21;100.00;99508.53;4333060;81;42863;-75
2021/01/09 18:51:10;;;;;;;65.28;26.97;;;;;;;0.25;100.00;99513.87;4320226;80;28603;-75
2021/01/09 18:57:13;;;;;;;59.05;26.25;;;;;;;0.31;100.00;99509.78;4279800;81;28558;-75
2021/01/09 19:03:18;;;;;;;65.47;27.13;;;;;;;0.34;100.00;99510.79;4309938;81;43455;-78
2021/01/09 19:09:21;;;;;;;65.52;28.17;;;;;;;0.39;100.00;99514.64;4354989;81;28619;-77
2021/01/09 19:15:31;;;;;;;65.37;30.12;;;;;;;0.35;100.00;99521.70;4337797;81;44116;-75
2021/01/09 19:21:35;;;;;;;72.95;30.70;;;;;;;0.38;100.00;99518.78;4318402;80;28607;-76
2021/01/09 19:27:38;;;;;;;72.80;30.92;;;;;;;0.46;100.00;99524.11;4320741;80;44105;-83
2021/01/09 19:33:41;;;;;;;72.12;31.80;;;;;;;0.49;100.00;99526.47;4389425;79;44094;-83
2021/01/09 19:39:44;;;;;;;70.62;30.72;;;;;;;0.56;100.00;99537.27;4420410;78;28564;-80
2021/01/09 19:45:48;;;;;;;73.67;31.73;;;;;;;0.56;100.00;99530.66;4399076;79;44159;-79
2021/01/09 19:51:53;;;;;;;72.10;31.68;;;;;;;0.55;100.00;99534.28;4250551;81;44123;-80
2021/01/09 19:57:57;;;;;;;;;;;;;;;0.62;100.00;99539.79;4272044;81;28536;-81
2021/01/09 20:04:00;;;;;;;70.10;30.08;;;;;;;0.65;100.00;99544.29;4328204;81;20756;-83
2021/01/09 20:10:05;;;;;;;77.32;32.75;;;;;;;0.67;100.00;99549.41;4329918;81;28636;-82
2021/01/09 20:16:11;;;;;;;82.60;32.20;;;;;;;0.68;100.00;99552.42;4325282;81;43037;-82
2021/01/09 20:22:15;;;;;;;69.75;30.15;;;;;;;0.69;100.00;99555.41;4323941;81;28622;-80
2021/01/09 20:28:19;;;;;;;61.63;25.68;;;;;;;0.71;100.00;99562.69;4253628;81;28554;-79
2021/01/09 20:34:23;;;;;;;70.45;29.37;;;;;;;0.66;100.00;99564.47;4217172;82;44116;-82
2021/01/09 20:40:26;;;;;;;70.30;30.12;;;;;;;0.64;100.00;99572.22;4195209;84;44112;-81
2021/01/09 20:46:32;;;;;;;69.47;29.30;;;;;;;0.59;100.00;99574.00;4230180;82;28546;-82
2021/01/09 20:52:35;;;;;;;67.80;27.98;;;;;;;0.71;100.00;99573.27;4200842;82;28595;-82
2021/01/09 20:58:39;;;;;;;56.63;23.22;;;;;;;0.65;100.00;99577.38;4225219;82;28576;-83
2021/01/09 21:04:41;;;;;;;63.42;26.93;;;;;;;0.65;100.00;99587.95;4229337;83;28631;-82
2021/01/09 21:10:43;;;;;;;53.63;24.77;;;;;;;0.63;100.00;99587.28;4229781;83;28579;-82
2021/01/09 21:16:46;;;;;;;62.90;25.40;;;;;;;0.64;100.00;99596.03;4237511;83;43216;-85
2021/01/09 21:22:49;;;;;;;56.77;24.67;;;;;;;0.68;100.00;99598.73;4246270;83;44119;-86
2021/01/09 21:28:53;;;;;;;53.20;24.80;;;;;;;0.68;100.00;99596.09;4253306;82;44086;-86
2021/01/09 21:34:56;;;;;;;52.33;22.82;;;;;;;0.58;100.00;99601.96;4263338;82;44127;-85
2021/01/09 21:40:58;;;;;;;55.20;23.70;;;;;;;0.65;100.00;99603.83;4261424;82;44083;-83
2021/01/09 21:47:01;;;;;;;53.73;23.00;;;;;;;0.66;100.00;99607.30;4262616;82;44107;-84
2021/01/09 21:53:05;;;;;;;50.00;23.75;;;;;;;0.49;100.00;99600.55;4268148;82;44507;-83
2021/01/09 21:59:07;;;;;;;48.48;21.60;;;;;;;0.41;100.00;99607.09;4277823;82;44395;-83
2021/01/09 22:05:10;;;;;;;50.00;22.13;;;;;;;0.44;100.00;99603.31;4258678;82;44442;-83
2021/01/09 22:11:14;;;;;;;48.30;20.72;;;;;;;0.49;100.00;99599.23;4271353;82;44538;-81
2021/01/09 22:17:16;;;;;;;48.33;20.60;;;;;;;0.45;100.00;99599.17;4271129;82;43736;-81
2021/01/09 22:23:19;;;;;;;49.42;22.62;;;;;;;0.53;100.00;99611.16;4274207;82;44482;-82
2021/01/09 22:29:21;;;;;;;48.02;22.82;;;;;;;0.46;100.00;99606.13;4252668;81;44452;-84
2021/01/09 22:35:24;;;;;;;51.90;23.45;;;;;;;0.54;100.00;99610.18;4256440;81;43999;-83
2021/01/09 22:41:26;;;;;;;51.40;21.27;;;;;;;0.54;100.00;99615.47;4268814;81;44125;-83
2021/01/09 22:47:28;;;;;;;55.50;23.55;;;;;;;0.46;100.00;99606.64;4321519;80;44170;-83
2021/01/09 22:53:31;;;;;;;55.63;24.75;;;;;;;0.63;100.00;99604.96;4267508;81;44091;-83
2021/01/09 22:59:32;;;;;;;47.60;23.00;;;;;;;0.43;100.00;99610.41;4322270;80;44491;-83
2021/01/09 23:05:35;;;;;;;53.95;23.42;;;;;;;0.63;100.00;99619.52;4303537;80;44131;-83
2021/01/09 23:11:38;;;;;;;54.70;24.55;;;;;;;0.48;100.00;99625.36;4245110;83;28608;-82
2021/01/09 23:17:41;;;;;;;52.20;22.77;;;;;;;0.57;100.00;99615.67;4292758;80;43576;-81
2021/01/09 23:23:45;;;;;;;53.92;22.62;;;;;;;0.46;100.00;99607.45;4304829;80;44145;-82
2021/01/09 23:29:48;;;;;;;55.05;22.45;;;;;;;0.51;100.00;99607.00;4251049;81;44099;-81
2021/01/09 23:35:51;;;;;;;50.70;21.97;;;;;;;0.38;100.00;99613.50;4317926;80;44019;-81
2021/01/09 23:41:53;;;;;;;50.50;20.75;;;;;;;0.43;100.00;99610.92;4232018;81;44453;-81
2021/01/09 23:47:55;;;;;;;55.58;24.40;;;;;;;0.38;100.00;99613.50;4316813;81;44125;-82
2021/01/09 23:53:58;;;;;;;49.98;22.90;;;;;;;0.35;100.00;99616.94;4244469;81;43733;-83
